createdAt,value
2022-10-20T00:03:27.812Z,101160.78
2022-10-20T00:08:30.470Z,101148.50
2022-10-20T00:13:34.399Z,101142.56
2022-10-20T00:18:37.750Z,101133.09
2022-10-20T00:23:40.352Z,101132.63
2022-10-20T00:28:44.774Z,101129.69
2022-10-20T00:33:47.818Z,101125.41
2022-10-20T00:38:50.869Z,101126.94
2022-10-20T00:43:56.173Z,101117.28
2022-10-20T00:49:01.451Z,101119.81
2022-10-20T00:54:09.033Z,101100.88
2022-10-20T00:59:15.939Z,101096.38
2022-10-20T01:04:18.958Z,101082.94
2022-10-20T01:09:21.632Z,101078.78
2022-10-20T01:14:36.307Z,101069.38
2022-10-20T01:19:53.748Z,101075.06
2022-10-20T01:25:02.624Z,101066.97
2022-10-20T01:30:12.582Z,101059.44
2022-10-20T01:35:22.193Z,101058.63
2022-10-20T01:40:28.507Z,101038.50
2022-10-20T01:45:34.993Z,101027.91
2022-10-20T01:50:38.343Z,101015.56
2022-10-20T01:55:41.546Z,101009.03
2022-10-20T02:00:45.998Z,101002.28
2022-10-20T02:05:58.307Z,100999.16
2022-10-20T02:11:03.134Z,100999.41
2022-10-20T02:16:10.567Z,100990.72
2022-10-20T02:21:13.279Z,100980.47
2022-10-20T02:26:17.189Z,100975.50
2022-10-20T02:31:21.703Z,100969.88
2022-10-20T02:36:28.074Z,100964.66
2022-10-20T02:41:31.148Z,100956.34
2022-10-20T02:46:35.252Z,100955.28
2022-10-20T02:51:38.024Z,100956.34
2022-10-20T02:56:40.616Z,100952.44
2022-10-20T03:01:44.848Z,100951.72
2022-10-20T03:06:47.543Z,100955.66
2022-10-20T03:11:50.123Z,100952.94
2022-10-20T03:16:54.063Z,100947.72
2022-10-20T03:21:56.687Z,100938.22
2022-10-20T03:26:59.351Z,100939.88
2022-10-20T03:32:03.286Z,100924.78
2022-10-20T03:37:06.021Z,100922.16
2022-10-20T03:42:08.670Z,100926.56
2022-10-20T03:47:13.138Z,100920.50
2022-10-20T03:52:15.761Z,100918.25
2022-10-20T03:57:18.447Z,100915.03
2022-10-20T04:02:31.715Z,100899.72
2022-10-20T04:07:34.419Z,100897.19
2022-10-20T04:12:37.627Z,100888.63
2022-10-20T04:17:41.969Z,100876.50
2022-10-20T04:22:44.595Z,100870.69
2022-10-20T04:27:47.211Z,100865.47
2022-10-20T04:32:51.263Z,100875.19
2022-10-20T04:37:55.511Z,100872.47
2022-10-20T04:42:59.982Z,100875.44
2022-10-20T04:48:05.821Z,100872.44
2022-10-20T04:53:08.606Z,100862.00
2022-10-20T04:58:11.381Z,100847.38
2022-10-20T05:03:15.386Z,100848.34
2022-10-20T05:08:17.996Z,100846.81
2022-10-20T05:13:20.702Z,100854.81
2022-10-20T05:18:24.973Z,100842.47
2022-10-20T05:23:27.682Z,100835.22
2022-10-20T05:28:30.516Z,100840.22
2022-10-20T05:33:34.721Z,100832.00
2022-10-20T05:38:37.879Z,100841.44
2022-10-20T05:43:41.312Z,100843.13
2022-10-20T05:48:45.414Z,100850.00
2022-10-20T05:53:48.441Z,100858.19
2022-10-20T05:58:51.023Z,100836.69
2022-10-20T06:03:56.577Z,100841.91
2022-10-20T06:09:00.519Z,100858.41
2022-10-20T06:14:03.259Z,100871.31
2022-10-20T06:19:07.816Z,100879.22
2022-10-20T06:24:11.057Z,100880.88
2022-10-20T06:29:16.203Z,100869.41
2022-10-20T06:34:21.666Z,100865.06
2022-10-20T06:39:25.095Z,100857.84
2022-10-20T06:44:27.737Z,100863.94
2022-10-20T06:49:32.102Z,100863.94
2022-10-20T06:54:34.717Z,100860.53
2022-10-20T06:59:38.672Z,100864.72
2022-10-20T07:04:42.929Z,100848.22
2022-10-20T07:09:45.526Z,100853.84
2022-10-20T07:14:49.203Z,100850.84
2022-10-20T07:19:53.338Z,100853.72
2022-10-20T07:24:56.066Z,100862.63
2022-10-20T07:29:58.670Z,100844.91
2022-10-20T07:35:02.677Z,100828.69
2022-10-20T07:40:06.324Z,100826.84
2022-10-20T07:45:09.870Z,100819.97
2022-10-20T07:50:13.968Z,100810.53
2022-10-20T07:55:33.529Z,100819.34
2022-10-20T08:05:48.413Z,100800.53
2022-10-20T08:10:51.230Z,100794.94
2022-10-20T08:15:54.025Z,100796.91
2022-10-20T08:21:09.374Z,100790.06
2022-10-20T08:26:13.078Z,100783.50
2022-10-20T08:31:15.795Z,100785.47
2022-10-20T08:36:19.888Z,100776.50
2022-10-20T08:41:24.752Z,100772.56
2022-10-20T08:46:30.770Z,100765.25
2022-10-20T08:51:38.202Z,100752.03
2022-10-20T08:56:40.940Z,100751.22
2022-10-20T09:01:43.636Z,100758.56
2022-10-20T09:06:51.367Z,100748.53
2022-10-20T09:11:57.215Z,100744.91
2022-10-20T09:17:00.851Z,100732.75
2022-10-20T09:22:07.424Z,100721.78
2022-10-20T09:27:22.602Z,100719.84
2022-10-20T09:32:45.909Z,100710.97
2022-10-20T09:38:03.025Z,100696.81
2022-10-20T09:43:10.642Z,100677.38
2022-10-20T09:48:20.305Z,100677.84
2022-10-20T09:53:26.773Z,100674.34
2022-10-20T09:58:31.193Z,100677.31
2022-10-20T10:03:39.901Z,100680.13
2022-10-20T10:08:46.774Z,100675.63
2022-10-20T10:13:50.766Z,100657.81
2022-10-20T10:18:59.770Z,100656.47
2022-10-20T10:24:05.579Z,100661.69
2022-10-20T10:29:17.669Z,100655.34
2022-10-20T10:34:44.991Z,100643.19
2022-10-20T10:39:49.550Z,100641.81
2022-10-20T10:44:57.471Z,100624.44
2022-10-20T10:50:04.555Z,100624.16
2022-10-20T10:55:30.504Z,100615.25
2022-10-20T11:00:43.902Z,100616.16
2022-10-20T11:06:15.457Z,100620.84
2022-10-20T11:11:28.724Z,100600.41
2022-10-20T11:16:34.351Z,100581.59
2022-10-20T11:21:44.550Z,100568.19
2022-10-20T11:26:52.167Z,100569.72
2022-10-20T11:31:58.719Z,100551.50
2022-10-20T11:37:05.996Z,100545.53
2022-10-20T11:42:19.826Z,100539.00
2022-10-20T11:47:26.819Z,100515.41
2022-10-20T11:53:00.635Z,100495.63
2022-10-20T11:58:15.839Z,100497.59
2022-10-20T12:03:46.914Z,100497.91
2022-10-20T12:09:20.399Z,100476.53
2022-10-20T12:14:27.375Z,100470.59
2022-10-20T12:19:31.449Z,100464.63
2022-10-20T12:24:36.955Z,100460.75
2022-10-20T12:29:58.401Z,100447.34
2022-10-20T12:35:02.653Z,100430.31
2022-10-20T12:40:21.630Z,100419.72
2022-10-20T12:45:36.784Z,100408.03
2022-10-20T12:50:41.611Z,100406.72
2022-10-20T12:55:45.689Z,100390.88
2022-10-20T13:01:09.637Z,100389.97
2022-10-20T13:06:45.141Z,100404.28
2022-10-20T13:11:58.157Z,100393.09
2022-10-20T13:17:11.673Z,100391.38
2022-10-20T13:22:38.925Z,100400.09
2022-10-20T13:27:41.627Z,100401.25
2022-10-20T13:33:10.877Z,100413.25
2022-10-20T13:38:18.039Z,100402.47
2022-10-20T13:43:30.791Z,100402.97
2022-10-20T13:48:45.293Z,100402.78
2022-10-20T13:53:50.094Z,100382.66
2022-10-20T13:59:04.536Z,100373.88
2022-10-20T14:04:26.159Z,100354.44
2022-10-20T14:09:28.796Z,100339.34
2022-10-20T14:14:32.034Z,100341.41
2022-10-20T14:19:36.457Z,100328.72
2022-10-20T14:24:43.121Z,100343.16
2022-10-20T14:29:46.541Z,100353.44
2022-10-20T14:34:58.656Z,100351.03
2022-10-20T14:40:02.310Z,100355.53
2022-10-20T14:45:05.881Z,100343.84
2022-10-20T14:50:21.383Z,100329.22
2022-10-20T14:55:35.274Z,100320.03
2022-10-20T15:00:38.454Z,100319.94
2022-10-20T15:05:45.228Z,100319.66
2022-10-20T15:10:47.950Z,100308.84
2022-10-20T15:15:50.753Z,100307.41
2022-10-20T15:20:55.654Z,100305.16
2022-10-20T15:26:00.330Z,100303.06
2022-10-20T15:31:05.148Z,100302.59
2022-10-20T15:36:14.994Z,100293.53
2022-10-20T15:41:19.444Z,100294.09
2022-10-20T15:46:22.880Z,100304.16
2022-10-20T15:51:28.676Z,100293.31
2022-10-20T15:56:31.274Z,100295.25
2022-10-20T16:01:34.234Z,100292.78
2022-10-20T16:06:38.721Z,100290.34
2022-10-20T16:11:41.333Z,100287.88
2022-10-20T16:16:45.100Z,100278.28
2022-10-20T16:21:49.235Z,100273.38
2022-10-20T16:26:52.706Z,100263.31
2022-10-20T16:31:55.667Z,100265.13
2022-10-20T16:36:59.765Z,100267.59
2022-10-20T16:42:02.545Z,100270.03
2022-10-20T16:47:05.565Z,100259.84
2022-10-20T16:52:09.660Z,100256.53
2022-10-20T16:57:13.054Z,100267.56
2022-10-20T17:02:16.253Z,100261.59
2022-10-20T17:07:20.419Z,100296.31
2022-10-20T17:12:23.198Z,100304.03
2022-10-20T17:17:25.871Z,100286.75
2022-10-20T17:22:29.955Z,100280.47
2022-10-20T17:27:32.830Z,100296.44
2022-10-20T17:32:36.379Z,100293.78
2022-10-20T17:37:40.658Z,100276.66
2022-10-20T17:42:43.379Z,100290.31
2022-10-20T17:47:46.158Z,100294.06
2022-10-20T17:52:50.642Z,100287.31
2022-10-20T17:57:53.302Z,100281.38
2022-10-20T18:02:56.059Z,100269.34
2022-10-20T18:08:00.287Z,100257.66
2022-10-20T18:13:03.136Z,100271.13
2022-10-20T18:18:06.212Z,100266.16
2022-10-20T18:23:10.513Z,100263.53
2022-10-20T18:33:24.278Z,100253.63
2022-10-20T18:38:28.426Z,100237.84
2022-10-20T18:43:31.041Z,100236.56
2022-10-20T18:48:35.597Z,100237.53
2022-10-20T18:58:49.286Z,100222.84
2022-10-20T19:03:53.168Z,100197.41
2022-10-20T19:08:58.260Z,100205.59
2022-10-20T19:14:01.481Z,100185.72
2022-10-20T19:19:06.381Z,100172.56
2022-10-20T19:24:13.489Z,100171.88
2022-10-20T19:29:18.453Z,100177.66
2022-10-20T19:34:23.154Z,100175.38
2022-10-20T19:39:29.594Z,100167.16
2022-10-20T19:44:32.422Z,100145.44
2022-10-20T19:49:37.630Z,100123.91
2022-10-20T19:54:42.012Z,100084.47
2022-10-20T19:59:44.846Z,100098.09
2022-10-20T20:04:47.850Z,100193.97
2022-10-20T20:09:51.997Z,100202.06
2022-10-20T20:14:54.695Z,100234.09
2022-10-20T20:19:57.906Z,100249.72
2022-10-20T20:25:02.067Z,100226.00
2022-10-20T20:30:05.337Z,100223.13
2022-10-20T20:35:09.477Z,100231.75
2022-10-20T20:40:13.863Z,100224.91
2022-10-20T20:45:16.793Z,100220.50
2022-10-20T20:50:19.552Z,100224.97
2022-10-20T20:55:23.479Z,100226.47
2022-10-20T21:00:26.301Z,100234.22
2022-10-20T21:05:29.385Z,100232.25
2022-10-20T21:10:35.609Z,100236.19
2022-10-20T21:15:38.285Z,100226.22
2022-10-20T21:20:41.100Z,100216.34
2022-10-20T21:25:47.851Z,100213.72
2022-10-20T21:30:50.757Z,100226.50
2022-10-20T21:35:53.383Z,100212.69
2022-10-20T21:41:02.332Z,100229.47
2022-10-20T21:46:13.502Z,100213.50
2022-10-20T21:51:18.170Z,100206.44
2022-10-20T21:56:22.151Z,100195.31
2022-10-20T22:01:25.915Z,100186.75
2022-10-20T22:06:28.801Z,100180.50
2022-10-20T22:11:34.531Z,100180.03
2022-10-20T22:16:38.346Z,100154.06
2022-10-20T22:21:43.111Z,100141.72
2022-10-20T22:26:47.849Z,100146.00
2022-10-20T22:31:51.134Z,100149.94
2022-10-20T22:36:53.725Z,100133.19
2022-10-20T22:41:57.743Z,100153.28
2022-10-20T22:47:00.313Z,100136.78
2022-10-20T22:52:02.973Z,100141.75
2022-10-20T22:57:07.019Z,100149.97
2022-10-20T23:02:09.687Z,100151.97
2022-10-20T23:07:12.284Z,100156.25
2022-10-20T23:12:18.133Z,100139.47
2022-10-20T23:17:20.754Z,100124.50
2022-10-20T23:22:23.367Z,100113.00
2022-10-20T23:27:27.315Z,100112.00
2022-10-20T23:32:29.965Z,100112.00
2022-10-20T23:37:32.611Z,100106.91
2022-10-20T23:42:36.541Z,100106.06
2022-10-20T23:47:39.538Z,100098.34
2022-10-20T23:52:42.382Z,100109.53
2022-10-20T23:57:46.320Z,100115.78
